sensor_id;sensor_type;location;lat;lon;timestamp;P1;P2;P0
36453;PMS5003;22478;51.740;-1.314;2024-03-02T00:01:17;1;1;
36453;PMS5003;22478;51.740;-1.314;2024-03-02T00:03:44;1;1;
36453;PMS5003;22478;51.740;-1.314;2024-03-02T00:06:12;1;1;
36453;PMS5003;22478;51.740;-1.314;2024-03-02T00:08:39;2;2;
36453;PMS5003;22478;51.740;-1.314;2024-03-02T00:11:06;2;2;
36453;PMS5003;22478;51.740;-1.314;2024-03-02T00:13:34;1;1;
36453;PMS5003;22478;51.740;-1.314;2024-03-02T00:16:02;1;1;
36453;PMS5003;22478;51.740;-1.314;2024-03-02T00:18:31;2;1;
36453;PMS5003;22478;51.740;-1.314;2024-03-02T00:21:00;0;0;
36453;PMS5003;22478;51.740;-1.314;2024-03-02T00:23:29;1;1;
36453;PMS5003;22478;51.740;-1.314;2024-03-02T00:25:57;1;1;
36453;PMS5003;22478;51.740;-1.314;2024-03-02T00:28:25;2;2;
36453;PMS5003;22478;51.740;-1.314;2024-03-02T00:30:56;2;2;
36453;PMS5003;22478;51.740;-1.314;2024-03-02T00:33:26;3;2;
36453;PMS5003;22478;51.740;-1.314;2024-03-02T00:35:54;1;1;
36453;PMS5003;22478;51.740;-1.314;2024-03-02T00:38:22;1;1;
36453;PMS5003;22478;51.740;-1.314;2024-03-02T00:40:50;2;1;
36453;PMS5003;22478;51.740;-1.314;2024-03-02T00:43:53;2;2;
36453;PMS5003;22478;51.740;-1.314;2024-03-02T00:46:24;2;2;
36453;PMS5003;22478;51.740;-1.314;2024-03-02T00:48:53;1;1;
36453;PMS5003;22478;51.740;-1.314;2024-03-02T00:51:22;1;1;
36453;PMS5003;22478;51.740;-1.314;2024-03-02T00:53:51;3;2;
36453;PMS5003;22478;51.740;-1.314;2024-03-02T00:56:19;2;2;
36453;PMS5003;22478;51.740;-1.314;2024-03-02T00:58:46;1;1;
36453;PMS5003;22478;51.740;-1.314;2024-03-02T01:01:13;4;3;
36453;PMS5003;22478;51.740;-1.314;2024-03-02T01:03:40;3;3;
36453;PMS5003;22478;51.740;-1.314;2024-03-02T01:06:08;2;2;
36453;PMS5003;22478;51.740;-1.314;2024-03-02T01:08:36;4;3;
36453;PMS5003;22478;51.740;-1.314;2024-03-02T01:11:04;1;1;
36453;PMS5003;22478;51.740;-1.314;2024-03-02T01:13:31;5;2;
36453;PMS5003;22478;51.740;-1.314;2024-03-02T01:15:59;3;3;
36453;PMS5003;22478;51.740;-1.314;2024-03-02T01:18:27;3;3;
36453;PMS5003;22478;51.740;-1.314;2024-03-02T01:20:54;2;2;
36453;PMS5003;22478;51.740;-1.314;2024-03-02T01:23:21;4;4;
36453;PMS5003;22478;51.740;-1.314;2024-03-02T01:25:49;2;2;
36453;PMS5003;22478;51.740;-1.314;2024-03-02T01:28:16;3;3;
36453;PMS5003;22478;51.740;-1.314;2024-03-02T01:30:43;4;4;
36453;PMS5003;22478;51.740;-1.314;2024-03-02T01:33:10;3;3;
36453;PMS5003;22478;51.740;-1.314;2024-03-02T01:35:38;5;4;
36453;PMS5003;22478;51.740;-1.314;2024-03-02T01:38:05;4;3;
36453;PMS5003;22478;51.740;-1.314;2024-03-02T01:40:33;4;3;
36453;PMS5003;22478;51.740;-1.314;2024-03-02T01:43:01;4;3;
36453;PMS5003;22478;51.740;-1.314;2024-03-02T01:45:28;3;3;
36453;PMS5003;22478;51.740;-1.314;2024-03-02T01:47:55;3;3;
36453;PMS5003;22478;51.740;-1.314;2024-03-02T01:50:26;3;3;
36453;PMS5003;22478;51.740;-1.314;2024-03-02T01:52:54;2;2;
36453;PMS5003;22478;51.740;-1.314;2024-03-02T01:55:22;2;2;
36453;PMS5003;22478;51.740;-1.314;2024-03-02T01:57:49;1;1;
36453;PMS5003;22478;51.740;-1.314;2024-03-02T02:00:17;4;2;
36453;PMS5003;22478;51.740;-1.314;2024-03-02T02:02:45;3;2;
36453;PMS5003;22478;51.740;-1.314;2024-03-02T02:05:13;3;2;
36453;PMS5003;22478;51.740;-1.314;2024-03-02T02:07:41;3;3;
36453;PMS5003;22478;51.740;-1.314;2024-03-02T02:10:09;2;2;
36453;PMS5003;22478;51.740;-1.314;2024-03-02T02:12:37;3;2;
36453;PMS5003;22478;51.740;-1.314;2024-03-02T02:15:21;2;2;
36453;PMS5003;22478;51.740;-1.314;2024-03-02T02:17:48;5;2;
36453;PMS5003;22478;51.740;-1.314;2024-03-02T02:20:16;2;2;
36453;PMS5003;22478;51.740;-1.314;2024-03-02T02:22:52;1;1;
36453;PMS5003;22478;51.740;-1.314;2024-03-02T02:25:21;2;2;
36453;PMS5003;22478;51.740;-1.314;2024-03-02T02:27:48;2;2;
36453;PMS5003;22478;51.740;-1.314;2024-03-02T02:30:18;1;1;
36453;PMS5003;22478;51.740;-1.314;2024-03-02T02:32:46;0;0;
36453;PMS5003;22478;51.740;-1.314;2024-03-02T02:35:13;1;0;
36453;PMS5003;22478;51.740;-1.314;2024-03-02T02:37:41;1;1;
36453;PMS5003;22478;51.740;-1.314;2024-03-02T02:40:09;1;1;
36453;PMS5003;22478;51.740;-1.314;2024-03-02T02:42:37;1;1;
36453;PMS5003;22478;51.740;-1.314;2024-03-02T02:45:04;1;1;
36453;PMS5003;22478;51.740;-1.314;2024-03-02T02:47:32;0;0;
36453;PMS5003;22478;51.740;-1.314;2024-03-02T02:49:59;0;0;
36453;PMS5003;22478;51.740;-1.314;2024-03-02T02:52:30;1;1;
36453;PMS5003;22478;51.740;-1.314;2024-03-02T02:54:57;0;0;
36453;PMS5003;22478;51.740;-1.314;2024-03-02T02:57:25;0;0;
36453;PMS5003;22478;51.740;-1.314;2024-03-02T02:59:52;1;1;
36453;PMS5003;22478;51.740;-1.314;2024-03-02T03:02:19;1;1;
36453;PMS5003;22478;51.740;-1.314;2024-03-02T03:04:46;2;1;
36453;PMS5003;22478;51.740;-1.314;2024-03-02T03:07:14;0;0;
36453;PMS5003;22478;51.740;-1.314;2024-03-02T03:09:41;1;1;
36453;PMS5003;22478;51.740;-1.314;2024-03-02T03:12:08;1;1;
36453;PMS5003;22478;51.740;-1.314;2024-03-02T03:14:35;1;1;
36453;PMS5003;22478;51.740;-1.314;2024-03-02T03:17:03;1;1;
36453;PMS5003;22478;51.740;-1.314;2024-03-02T03:19:30;1;1;
36453;PMS5003;22478;51.740;-1.314;2024-03-02T03:21:57;0;0;
36453;PMS5003;22478;51.740;-1.314;2024-03-02T03:24:24;0;0;
36453;PMS5003;22478;51.740;-1.314;2024-03-02T03:26:52;1;1;
36453;PMS5003;22478;51.740;-1.314;2024-03-02T03:29:19;1;0;
36453;PMS5003;22478;51.740;-1.314;2024-03-02T03:31:46;0;0;
36453;PMS5003;22478;51.740;-1.314;2024-03-02T03:34:13;2;1;
36453;PMS5003;22478;51.740;-1.314;2024-03-02T03:36:41;0;0;
36453;PMS5003;22478;51.740;-1.314;2024-03-02T03:39:08;1;0;
36453;PMS5003;22478;51.740;-1.314;2024-03-02T03:41:35;1;0;
36453;PMS5003;22478;51.740;-1.314;2024-03-02T03:44:02;2;0;
36453;PMS5003;22478;51.740;-1.314;2024-03-02T03:46:30;0;0;
36453;PMS5003;22478;51.740;-1.314;2024-03-02T03:48:57;0;0;
36453;PMS5003;22478;51.740;-1.314;2024-03-02T03:51:24;0;0;
36453;PMS5003;22478;51.740;-1.314;2024-03-02T03:53:51;0;0;
36453;PMS5003;22478;51.740;-1.314;2024-03-02T03:56:19;0;0;
36453;PMS5003;22478;51.740;-1.314;2024-03-02T03:58:46;0;0;
36453;PMS5003;22478;51.740;-1.314;2024-03-02T04:01:13;1;1;
36453;PMS5003;22478;51.740;-1.314;2024-03-02T04:03:40;1;0;
36453;PMS5003;22478;51.740;-1.314;2024-03-02T04:06:08;0;0;
36453;PMS5003;22478;51.740;-1.314;2024-03-02T04:08:35;0;0;
36453;PMS5003;22478;51.740;-1.314;2024-03-02T04:11:02;1;0;
36453;PMS5003;22478;51.740;-1.314;2024-03-02T04:13:29;0;0;
36453;PMS5003;22478;51.740;-1.314;2024-03-02T04:15:57;0;0;
36453;PMS5003;22478;51.740;-1.314;2024-03-02T04:18:24;0;0;
36453;PMS5003;22478;51.740;-1.314;2024-03-02T04:20:51;0;0;
36453;PMS5003;22478;51.740;-1.314;2024-03-02T04:23:18;0;0;
36453;PMS5003;22478;51.740;-1.314;2024-03-02T04:25:46;1;0;
36453;PMS5003;22478;51.740;-1.314;2024-03-02T04:28:13;0;0;
36453;PMS5003;22478;51.740;-1.314;2024-03-02T04:30:40;1;0;
36453;PMS5003;22478;51.740;-1.314;2024-03-02T04:33:07;0;0;
36453;PMS5003;22478;51.740;-1.314;2024-03-02T04:35:35;0;0;
36453;PMS5003;22478;51.740;-1.314;2024-03-02T04:38:02;2;0;
36453;PMS5003;22478;51.740;-1.314;2024-03-02T04:40:29;0;0;
36453;PMS5003;22478;51.740;-1.314;2024-03-02T04:42:56;0;0;
36453;PMS5003;22478;51.740;-1.314;2024-03-02T04:45:23;0;0;
36453;PMS5003;22478;51.740;-1.314;2024-03-02T04:47:51;0;0;
36453;PMS5003;22478;51.740;-1.314;2024-03-02T04:50:18;0;0;
36453;PMS5003;22478;51.740;-1.314;2024-03-02T04:52:45;0;0;
36453;PMS5003;22478;51.740;-1.314;2024-03-02T04:55:12;2;1;
36453;PMS5003;22478;51.740;-1.314;2024-03-02T04:57:40;0;0;
36453;PMS5003;22478;51.740;-1.314;2024-03-02T05:00:07;0;0;
36453;PMS5003;22478;51.740;-1.314;2024-03-02T05:02:36;2;1;
36453;PMS5003;22478;51.740;-1.314;2024-03-02T05:05:03;1;1;
36453;PMS5003;22478;51.740;-1.314;2024-03-02T05:07:31;3;3;
36453;PMS5003;22478;51.740;-1.314;2024-03-02T05:09:58;1;0;
36453;PMS5003;22478;51.740;-1.314;2024-03-02T05:12:26;1;1;
36453;PMS5003;22478;51.740;-1.314;2024-03-02T05:14:53;4;1;
36453;PMS5003;22478;51.740;-1.314;2024-03-02T05:17:20;1;1;
36453;PMS5003;22478;51.740;-1.314;2024-03-02T05:19:47;2;2;
36453;PMS5003;22478;51.740;-1.314;2024-03-02T05:22:15;1;1;
36453;PMS5003;22478;51.740;-1.314;2024-03-02T05:24:42;1;1;
36453;PMS5003;22478;51.740;-1.314;2024-03-02T05:27:10;4;2;
36453;PMS5003;22478;51.740;-1.314;2024-03-02T05:29:37;1;1;
36453;PMS5003;22478;51.740;-1.314;2024-03-02T05:32:04;1;1;
36453;PMS5003;22478;51.740;-1.314;2024-03-02T05:34:32;1;1;
36453;PMS5003;22478;51.740;-1.314;2024-03-02T05:36:59;3;2;
36453;PMS5003;22478;51.740;-1.314;2024-03-02T05:39:26;2;1;
36453;PMS5003;22478;51.740;-1.314;2024-03-02T05:41:53;3;1;
36453;PMS5003;22478;51.740;-1.314;2024-03-02T05:44:20;4;3;
36453;PMS5003;22478;51.740;-1.314;2024-03-02T05:46:48;5;2;
36453;PMS5003;22478;51.740;-1.314;2024-03-02T05:49:15;1;1;
36453;PMS5003;22478;51.740;-1.314;2024-03-02T05:51:43;2;2;
36453;PMS5003;22478;51.740;-1.314;2024-03-02T05:54:10;1;1;
36453;PMS5003;22478;51.740;-1.314;2024-03-02T05:56:37;2;2;
36453;PMS5003;22478;51.740;-1.314;2024-03-02T05:59:04;3;1;
36453;PMS5003;22478;51.740;-1.314;2024-03-02T06:01:31;3;1;
36453;PMS5003;22478;51.740;-1.314;2024-03-02T06:03:59;0;0;
36453;PMS5003;22478;51.740;-1.314;2024-03-02T06:06:26;3;1;
36453;PMS5003;22478;51.740;-1.314;2024-03-02T06:08:53;1;1;
36453;PMS5003;22478;51.740;-1.314;2024-03-02T06:11:20;0;0;
36453;PMS5003;22478;51.740;-1.314;2024-03-02T06:13:48;1;1;
36453;PMS5003;22478;51.740;-1.314;2024-03-02T06:16:15;1;0;
36453;PMS5003;22478;51.740;-1.314;2024-03-02T06:18:42;2;1;
36453;PMS5003;22478;51.740;-1.314;2024-03-02T06:21:10;4;1;
36453;PMS5003;22478;51.740;-1.314;2024-03-02T06:23:37;1;1;
36453;PMS5003;22478;51.740;-1.314;2024-03-02T06:26:04;1;1;
36453;PMS5003;22478;51.740;-1.314;2024-03-02T06:28:32;0;0;
36453;PMS5003;22478;51.740;-1.314;2024-03-02T06:30:59;0;0;
36453;PMS5003;22478;51.740;-1.314;2024-03-02T06:33:26;3;1;
36453;PMS5003;22478;51.740;-1.314;2024-03-02T06:35:53;1;1;
36453;PMS5003;22478;51.740;-1.314;2024-03-02T06:38:21;0;0;
36453;PMS5003;22478;51.740;-1.314;2024-03-02T06:40:48;0;0;
36453;PMS5003;22478;51.740;-1.314;2024-03-02T06:43:15;1;1;
36453;PMS5003;22478;51.740;-1.314;2024-03-02T06:45:42;1;1;
36453;PMS5003;22478;51.740;-1.314;2024-03-02T06:48:09;2;0;
36453;PMS5003;22478;51.740;-1.314;2024-03-02T06:50:37;2;0;
36453;PMS5003;22478;51.740;-1.314;2024-03-02T06:53:04;1;1;
36453;PMS5003;22478;51.740;-1.314;2024-03-02T06:55:31;1;0;
36453;PMS5003;22478;51.740;-1.314;2024-03-02T06:57:58;1;0;
36453;PMS5003;22478;51.740;-1.314;2024-03-02T07:00:26;0;0;
36453;PMS5003;22478;51.740;-1.314;2024-03-02T07:02:53;2;1;
36453;PMS5003;22478;51.740;-1.314;2024-03-02T07:05:20;0;0;
36453;PMS5003;22478;51.740;-1.314;2024-03-02T07:07:47;0;0;
36453;PMS5003;22478;51.740;-1.314;2024-03-02T07:10:15;1;1;
36453;PMS5003;22478;51.740;-1.314;2024-03-02T07:12:42;4;2;
36453;PMS5003;22478;51.740;-1.314;2024-03-02T07:15:10;0;0;
36453;PMS5003;22478;51.740;-1.314;2024-03-02T07:17:37;4;2;
36453;PMS5003;22478;51.740;-1.314;2024-03-02T07:20:05;1;0;
36453;PMS5003;22478;51.740;-1.314;2024-03-02T07:22:32;3;1;
36453;PMS5003;22478;51.740;-1.314;2024-03-02T07:25:00;0;0;
36453;PMS5003;22478;51.740;-1.314;2024-03-02T07:27:27;0;0;
36453;PMS5003;22478;51.740;-1.314;2024-03-02T07:29:54;1;1;
36453;PMS5003;22478;51.740;-1.314;2024-03-02T07:32:21;3;1;
36453;PMS5003;22478;51.740;-1.314;2024-03-02T07:34:49;0;0;
36453;PMS5003;22478;51.740;-1.314;2024-03-02T07:37:16;0;0;
36453;PMS5003;22478;51.740;-1.314;2024-03-02T07:39:43;0;0;
36453;PMS5003;22478;51.740;-1.314;2024-03-02T07:42:11;1;1;
36453;PMS5003;22478;51.740;-1.314;2024-03-02T07:44:38;0;0;
36453;PMS5003;22478;51.740;-1.314;2024-03-02T07:47:06;0;0;
36453;PMS5003;22478;51.740;-1.314;2024-03-02T07:49:33;1;0;
36453;PMS5003;22478;51.740;-1.314;2024-03-02T07:52:00;2;0;
36453;PMS5003;22478;51.740;-1.314;2024-03-02T07:54:27;1;1;
36453;PMS5003;22478;51.740;-1.314;2024-03-02T07:56:54;1;1;
36453;PMS5003;22478;51.740;-1.314;2024-03-02T07:59:22;0;0;
36453;PMS5003;22478;51.740;-1.314;2024-03-02T08:01:49;0;0;
36453;PMS5003;22478;51.740;-1.314;2024-03-02T08:04:16;0;0;
36453;PMS5003;22478;51.740;-1.314;2024-03-02T08:06:43;0;0;
36453;PMS5003;22478;51.740;-1.314;2024-03-02T08:09:11;0;0;
36453;PMS5003;22478;51.740;-1.314;2024-03-02T08:11:39;0;0;
36453;PMS5003;22478;51.740;-1.314;2024-03-02T08:14:06;1;1;
36453;PMS5003;22478;51.740;-1.314;2024-03-02T08:16:33;1;1;
36453;PMS5003;22478;51.740;-1.314;2024-03-02T08:19:00;0;0;
36453;PMS5003;22478;51.740;-1.314;2024-03-02T08:21:28;0;0;
36453;PMS5003;22478;51.740;-1.314;2024-03-02T08:23:55;0;0;
36453;PMS5003;22478;51.740;-1.314;2024-03-02T08:26:23;2;0;
36453;PMS5003;22478;51.740;-1.314;2024-03-02T08:28:50;0;0;
36453;PMS5003;22478;51.740;-1.314;2024-03-02T08:31:17;0;0;
36453;PMS5003;22478;51.740;-1.314;2024-03-02T08:33:45;0;0;
36453;PMS5003;22478;51.740;-1.314;2024-03-02T08:36:12;0;0;
36453;PMS5003;22478;51.740;-1.314;2024-03-02T08:38:39;0;0;
36453;PMS5003;22478;51.740;-1.314;2024-03-02T08:41:06;0;0;
36453;PMS5003;22478;51.740;-1.314;2024-03-02T08:43:34;0;0;
36453;PMS5003;22478;51.740;-1.314;2024-03-02T08:46:01;0;0;
36453;PMS5003;22478;51.740;-1.314;2024-03-02T08:48:28;0;0;
36453;PMS5003;22478;51.740;-1.314;2024-03-02T08:50:55;0;0;
36453;PMS5003;22478;51.740;-1.314;2024-03-02T08:53:23;0;0;
36453;PMS5003;22478;51.740;-1.314;2024-03-02T08:55:50;0;0;
36453;PMS5003;22478;51.740;-1.314;2024-03-02T08:58:17;0;0;
36453;PMS5003;22478;51.740;-1.314;2024-03-02T09:00:44;0;0;
36453;PMS5003;22478;51.740;-1.314;2024-03-02T09:03:13;0;0;
36453;PMS5003;22478;51.740;-1.314;2024-03-02T09:05:41;0;0;
36453;PMS5003;22478;51.740;-1.314;2024-03-02T09:08:08;0;0;
36453;PMS5003;22478;51.740;-1.314;2024-03-02T09:10:35;0;0;
36453;PMS5003;22478;51.740;-1.314;2024-03-02T09:13:02;0;0;
36453;PMS5003;22478;51.740;-1.314;2024-03-02T09:15:29;0;0;
36453;PMS5003;22478;51.740;-1.314;2024-03-02T09:17:57;1;1;
36453;PMS5003;22478;51.740;-1.314;2024-03-02T09:20:24;2;0;
36453;PMS5003;22478;51.740;-1.314;2024-03-02T09:22:51;0;0;
36453;PMS5003;22478;51.740;-1.314;2024-03-02T09:25:18;0;0;
36453;PMS5003;22478;51.740;-1.314;2024-03-02T09:27:46;0;0;
36453;PMS5003;22478;51.740;-1.314;2024-03-02T09:30:14;0;0;
36453;PMS5003;22478;51.740;-1.314;2024-03-02T09:32:41;0;0;
36453;PMS5003;22478;51.740;-1.314;2024-03-02T09:35:08;0;0;
36453;PMS5003;22478;51.740;-1.314;2024-03-02T09:37:35;0;0;
36453;PMS5003;22478;51.740;-1.314;2024-03-02T09:40:03;0;0;
36453;PMS5003;22478;51.740;-1.314;2024-03-02T09:42:31;0;0;
36453;PMS5003;22478;51.740;-1.314;2024-03-02T09:44:58;0;0;
36453;PMS5003;22478;51.740;-1.314;2024-03-02T09:47:25;0;0;
36453;PMS5003;22478;51.740;-1.314;2024-03-02T09:49:52;0;0;
36453;PMS5003;22478;51.740;-1.314;2024-03-02T09:52:19;1;0;
36453;PMS5003;22478;51.740;-1.314;2024-03-02T09:54:47;0;0;
36453;PMS5003;22478;51.740;-1.314;2024-03-02T09:57:15;0;0;
36453;PMS5003;22478;51.740;-1.314;2024-03-02T09:59:42;0;0;
36453;PMS5003;22478;51.740;-1.314;2024-03-02T10:02:10;0;0;
36453;PMS5003;22478;51.740;-1.314;2024-03-02T10:04:37;0;0;
36453;PMS5003;22478;51.740;-1.314;2024-03-02T10:07:12;0;0;
36453;PMS5003;22478;51.740;-1.314;2024-03-02T10:09:40;0;0;
36453;PMS5003;22478;51.740;-1.314;2024-03-02T10:12:09;1;0;
36453;PMS5003;22478;51.740;-1.314;2024-03-02T10:14:37;0;0;
36453;PMS5003;22478;51.740;-1.314;2024-03-02T10:17:05;0;0;
36453;PMS5003;22478;51.740;-1.314;2024-03-02T10:19:34;0;0;
36453;PMS5003;22478;51.740;-1.314;2024-03-02T10:22:02;1;1;
36453;PMS5003;22478;51.740;-1.314;2024-03-02T10:24:35;1;1;
36453;PMS5003;22478;51.740;-1.314;2024-03-02T10:27:07;0;0;
36453;PMS5003;22478;51.740;-1.314;2024-03-02T10:29:37;0;0;
36453;PMS5003;22478;51.740;-1.314;2024-03-02T10:32:05;1;1;
36453;PMS5003;22478;51.740;-1.314;2024-03-02T10:34:35;0;0;
36453;PMS5003;22478;51.740;-1.314;2024-03-02T10:37:02;0;0;
36453;PMS5003;22478;51.740;-1.314;2024-03-02T10:39:30;0;0;
36453;PMS5003;22478;51.740;-1.314;2024-03-02T10:41:57;0;0;
36453;PMS5003;22478;51.740;-1.314;2024-03-02T10:44:25;0;0;
36453;PMS5003;22478;51.740;-1.314;2024-03-02T10:46:53;1;1;
36453;PMS5003;22478;51.740;-1.314;2024-03-02T10:49:23;0;0;
36453;PMS5003;22478;51.740;-1.314;2024-03-02T10:51:50;0;0;
36453;PMS5003;22478;51.740;-1.314;2024-03-02T10:54:18;0;0;
36453;PMS5003;22478;51.740;-1.314;2024-03-02T10:56:45;1;1;
36453;PMS5003;22478;51.740;-1.314;2024-03-02T10:59:16;1;1;
36453;PMS5003;22478;51.740;-1.314;2024-03-02T11:01:48;1;1;
36453;PMS5003;22478;51.740;-1.314;2024-03-02T11:04:17;0;0;
36453;PMS5003;22478;51.740;-1.314;2024-03-02T11:06:46;1;1;
36453;PMS5003;22478;51.740;-1.314;2024-03-02T11:09:16;3;2;
36453;PMS5003;22478;51.740;-1.314;2024-03-02T11:11:49;0;0;
36453;PMS5003;22478;51.740;-1.314;2024-03-02T11:14:24;1;1;
36453;PMS5003;22478;51.740;-1.314;2024-03-02T11:16:52;2;2;
36453;PMS5003;22478;51.740;-1.314;2024-03-02T11:19:20;0;0;
36453;PMS5003;22478;51.740;-1.314;2024-03-02T11:21:48;2;2;
36453;PMS5003;22478;51.740;-1.314;2024-03-02T11:24:31;1;1;
36453;PMS5003;22478;51.740;-1.314;2024-03-02T11:27:00;0;0;
36453;PMS5003;22478;51.740;-1.314;2024-03-02T11:29:43;0;0;
36453;PMS5003;22478;51.740;-1.314;2024-03-02T11:32:14;0;0;
36453;PMS5003;22478;51.740;-1.314;2024-03-02T11:34:45;1;1;
36453;PMS5003;22478;51.740;-1.314;2024-03-02T11:37:13;1;1;
36453;PMS5003;22478;51.740;-1.314;2024-03-02T11:39:41;1;1;
36453;PMS5003;22478;51.740;-1.314;2024-03-02T11:42:10;1;1;
36453;PMS5003;22478;51.740;-1.314;2024-03-02T11:44:38;1;1;
36453;PMS5003;22478;51.740;-1.314;2024-03-02T11:47:10;0;0;
36453;PMS5003;22478;51.740;-1.314;2024-03-02T11:49:39;1;1;
36453;PMS5003;22478;51.740;-1.314;2024-03-02T11:52:08;1;1;
36453;PMS5003;22478;51.740;-1.314;2024-03-02T11:54:37;1;1;
36453;PMS5003;22478;51.740;-1.314;2024-03-02T11:57:05;1;1;
36453;PMS5003;22478;51.740;-1.314;2024-03-02T11:59:33;1;1;
36453;PMS5003;22478;51.740;-1.314;2024-03-02T12:02:00;1;1;
36453;PMS5003;22478;51.740;-1.314;2024-03-02T12:04:28;1;1;
36453;PMS5003;22478;51.740;-1.314;2024-03-02T12:06:56;0;0;
36453;PMS5003;22478;51.740;-1.314;2024-03-02T12:09:25;1;1;
36453;PMS5003;22478;51.740;-1.314;2024-03-02T12:12:09;0;0;
36453;PMS5003;22478;51.740;-1.314;2024-03-02T12:14:38;1;0;
36453;PMS5003;22478;51.740;-1.314;2024-03-02T12:17:05;1;1;
36453;PMS5003;22478;51.740;-1.314;2024-03-02T12:19:33;0;0;
36453;PMS5003;22478;51.740;-1.314;2024-03-02T12:22:00;0;0;
36453;PMS5003;22478;51.740;-1.314;2024-03-02T12:24:28;0;0;
36453;PMS5003;22478;51.740;-1.314;2024-03-02T12:26:56;1;1;
36453;PMS5003;22478;51.740;-1.314;2024-03-02T12:29:24;1;1;
36453;PMS5003;22478;51.740;-1.314;2024-03-02T12:31:52;1;1;
36453;PMS5003;22478;51.740;-1.314;2024-03-02T12:34:20;1;1;
36453;PMS5003;22478;51.740;-1.314;2024-03-02T12:36:49;1;1;
36453;PMS5003;22478;51.740;-1.314;2024-03-02T12:39:17;0;0;
36453;PMS5003;22478;51.740;-1.314;2024-03-02T12:41:45;0;0;
36453;PMS5003;22478;51.740;-1.314;2024-03-02T12:44:13;2;1;
36453;PMS5003;22478;51.740;-1.314;2024-03-02T12:46:40;0;0;
36453;PMS5003;22478;51.740;-1.314;2024-03-02T12:49:08;1;1;
36453;PMS5003;22478;51.740;-1.314;2024-03-02T12:51:36;0;0;
36453;PMS5003;22478;51.740;-1.314;2024-03-02T12:54:04;1;1;
36453;PMS5003;22478;51.740;-1.314;2024-03-02T12:56:31;2;1;
36453;PMS5003;22478;51.740;-1.314;2024-03-02T12:58:59;1;1;
36453;PMS5003;22478;51.740;-1.314;2024-03-02T13:01:26;2;1;
36453;PMS5003;22478;51.740;-1.314;2024-03-02T13:03:54;1;1;
36453;PMS5003;22478;51.740;-1.314;2024-03-02T13:06:21;0;0;
36453;PMS5003;22478;51.740;-1.314;2024-03-02T13:08:48;1;1;
36453;PMS5003;22478;51.740;-1.314;2024-03-02T13:11:16;1;1;
36453;PMS5003;22478;51.740;-1.314;2024-03-02T13:13:43;1;1;
36453;PMS5003;22478;51.740;-1.314;2024-03-02T13:16:12;0;0;
36453;PMS5003;22478;51.740;-1.314;2024-03-02T13:18:39;1;1;
36453;PMS5003;22478;51.740;-1.314;2024-03-02T13:21:06;0;0;
36453;PMS5003;22478;51.740;-1.314;2024-03-02T13:23:34;1;1;
36453;PMS5003;22478;51.740;-1.314;2024-03-02T13:26:01;1;1;
36453;PMS5003;22478;51.740;-1.314;2024-03-02T13:28:28;1;1;
36453;PMS5003;22478;51.740;-1.314;2024-03-02T13:30:55;1;1;
36453;PMS5003;22478;51.740;-1.314;2024-03-02T13:33:23;1;1;
36453;PMS5003;22478;51.740;-1.314;2024-03-02T13:35:50;1;1;
36453;PMS5003;22478;51.740;-1.314;2024-03-02T13:38:19;1;1;
36453;PMS5003;22478;51.740;-1.314;2024-03-02T13:40:47;1;1;
36453;PMS5003;22478;51.740;-1.314;2024-03-02T13:43:15;1;1;
36453;PMS5003;22478;51.740;-1.314;2024-03-02T13:45:43;1;1;
36453;PMS5003;22478;51.740;-1.314;2024-03-02T13:48:10;1;1;
36453;PMS5003;22478;51.740;-1.314;2024-03-02T13:50:38;1;1;
36453;PMS5003;22478;51.740;-1.314;2024-03-02T13:53:05;3;1;
36453;PMS5003;22478;51.740;-1.314;2024-03-02T13:55:32;2;2;
36453;PMS5003;22478;51.740;-1.314;2024-03-02T13:57:59;2;2;
36453;PMS5003;22478;51.740;-1.314;2024-03-02T14:00:26;2;2;
36453;PMS5003;22478;51.740;-1.314;2024-03-02T14:02:54;2;2;
36453;PMS5003;22478;51.740;-1.314;2024-03-02T14:05:21;4;2;
36453;PMS5003;22478;51.740;-1.314;2024-03-02T14:07:49;3;3;
36453;PMS5003;22478;51.740;-1.314;2024-03-02T14:10:16;1;1;
36453;PMS5003;22478;51.740;-1.314;2024-03-02T14:12:44;2;2;
36453;PMS5003;22478;51.740;-1.314;2024-03-02T14:15:11;2;2;
36453;PMS5003;22478;51.740;-1.314;2024-03-02T14:17:38;4;4;
36453;PMS5003;22478;51.740;-1.314;2024-03-02T14:20:06;3;3;
36453;PMS5003;22478;51.740;-1.314;2024-03-02T14:22:33;3;3;
36453;PMS5003;22478;51.740;-1.314;2024-03-02T14:25:01;2;2;
36453;PMS5003;22478;51.740;-1.314;2024-03-02T14:27:28;4;4;
36453;PMS5003;22478;51.740;-1.314;2024-03-02T14:29:55;4;3;
36453;PMS5003;22478;51.740;-1.314;2024-03-02T14:32:22;4;4;
36453;PMS5003;22478;51.740;-1.314;2024-03-02T14:34:49;4;4;
36453;PMS5003;22478;51.740;-1.314;2024-03-02T14:37:16;6;5;
36453;PMS5003;22478;51.740;-1.314;2024-03-02T14:39:43;5;5;
36453;PMS5003;22478;51.740;-1.314;2024-03-02T14:42:10;7;7;
36453;PMS5003;22478;51.740;-1.314;2024-03-02T14:44:38;5;5;
36453;PMS5003;22478;51.740;-1.314;2024-03-02T14:47:05;5;5;
36453;PMS5003;22478;51.740;-1.314;2024-03-02T14:49:32;9;9;
36453;PMS5003;22478;51.740;-1.314;2024-03-02T14:52:00;9;7;
36453;PMS5003;22478;51.740;-1.314;2024-03-02T14:54:27;8;8;
36453;PMS5003;22478;51.740;-1.314;2024-03-02T14:56:54;11;11;
36453;PMS5003;22478;51.740;-1.314;2024-03-02T14:59:22;9;9;
36453;PMS5003;22478;51.740;-1.314;2024-03-02T15:01:49;7;7;
36453;PMS5003;22478;51.740;-1.314;2024-03-02T15:04:16;4;4;
36453;PMS5003;22478;51.740;-1.314;2024-03-02T15:06:43;5;5;
36453;PMS5003;22478;51.740;-1.314;2024-03-02T15:09:10;5;3;
36453;PMS5003;22478;51.740;-1.314;2024-03-02T15:11:38;4;4;
36453;PMS5003;22478;51.740;-1.314;2024-03-02T15:14:05;3;3;
36453;PMS5003;22478;51.740;-1.314;2024-03-02T15:16:32;4;4;
36453;PMS5003;22478;51.740;-1.314;2024-03-02T15:18:59;4;4;
36453;PMS5003;22478;51.740;-1.314;2024-03-02T15:21:26;5;5;
36453;PMS5003;22478;51.740;-1.314;2024-03-02T15:23:53;12;12;
36453;PMS5003;22478;51.740;-1.314;2024-03-02T15:26:20;8;6;
36453;PMS5003;22478;51.740;-1.314;2024-03-02T15:28:47;7;7;
36453;PMS5003;22478;51.740;-1.314;2024-03-02T15:31:14;12;12;
36453;PMS5003;22478;51.740;-1.314;2024-03-02T15:33:41;8;6;
36453;PMS5003;22478;51.740;-1.314;2024-03-02T15:36:09;11;10;
36453;PMS5003;22478;51.740;-1.314;2024-03-02T15:38:36;8;8;
36453;PMS5003;22478;51.740;-1.314;2024-03-02T15:41:03;7;7;
36453;PMS5003;22478;51.740;-1.314;2024-03-02T15:43:31;8;7;
36453;PMS5003;22478;51.740;-1.314;2024-03-02T15:45:58;6;6;
36453;PMS5003;22478;51.740;-1.314;2024-03-02T15:48:25;6;6;
36453;PMS5003;22478;51.740;-1.314;2024-03-02T15:50:52;5;5;
36453;PMS5003;22478;51.740;-1.314;2024-03-02T15:53:19;9;8;
36453;PMS5003;22478;51.740;-1.314;2024-03-02T15:55:47;7;7;
36453;PMS5003;22478;51.740;-1.314;2024-03-02T15:58:14;8;7;
36453;PMS5003;22478;51.740;-1.314;2024-03-02T16:00:41;9;6;
36453;PMS5003;22478;51.740;-1.314;2024-03-02T16:03:08;7;7;
36453;PMS5003;22478;51.740;-1.314;2024-03-02T16:05:35;6;6;
36453;PMS5003;22478;51.740;-1.314;2024-03-02T16:08:03;6;6;
36453;PMS5003;22478;51.740;-1.314;2024-03-02T16:10:30;6;6;
36453;PMS5003;22478;51.740;-1.314;2024-03-02T16:12:58;5;4;
36453;PMS5003;22478;51.740;-1.314;2024-03-02T16:15:25;6;4;
36453;PMS5003;22478;51.740;-1.314;2024-03-02T16:17:53;5;5;
36453;PMS5003;22478;51.740;-1.314;2024-03-02T16:20:20;5;5;
36453;PMS5003;22478;51.740;-1.314;2024-03-02T16:22:47;6;6;
36453;PMS5003;22478;51.740;-1.314;2024-03-02T16:25:14;6;6;
36453;PMS5003;22478;51.740;-1.314;2024-03-02T16:27:42;7;7;
36453;PMS5003;22478;51.740;-1.314;2024-03-02T16:30:09;7;5;
36453;PMS5003;22478;51.740;-1.314;2024-03-02T16:32:37;4;4;
36453;PMS5003;22478;51.740;-1.314;2024-03-02T16:35:04;3;3;
36453;PMS5003;22478;51.740;-1.314;2024-03-02T16:37:31;5;3;